KTRK 201255Z AUTO 00000KT 10SM OVC019 M05/M06 A2988 RMK AO2